Time;durP1;ratioP1;P1;durP2;ratioP2;P2;SDS_P1;SDS_P2;PMS_P1;PMS_P2;Temp;Humidity;BMP_temperature;BMP_pressure;BME280_temperature;BME280_humidity;BME280_pressure;Samples;Min_cycle;Max_cycle;Signal;HPM_P1;HPM_P2
2023/05/25 00:04:42;;;;;;;;;;;19.60;54.70;;;;;;10372103;28;785;-75
2023/05/25 00:09:38;;;;;;;;;;;19.50;54.60;;;;;;10371035;28;846;-75
2023/05/25 00:14:33;;;;;;;;;;;19.50;54.60;;;;;;10371340;28;871;-75
2023/05/25 00:19:31;;;;;;;;;;;19.60;54.50;;;;;;10371257;28;1894;-75
2023/05/25 00:24:26;;;;;;;;;;;19.60;54.60;;;;;;10370413;28;938;-75
2023/05/25 00:29:21;;;;;;;;;;;19.50;54.60;;;;;;10370286;28;829;-75
2023/05/25 00:34:17;;;;;;;;;;;19.50;54.50;;;;;;10369910;28;1220;-75
2023/05/25 00:39:12;;;;;;;;;;;19.50;54.60;;;;;;10370578;28;1981;-75
2023/05/25 00:44:07;;;;;;;;;;;19.50;54.70;;;;;;10369883;28;878;-75
2023/05/25 00:49:03;;;;;;;;;;;19.40;54.60;;;;;;10369506;28;825;-75
2023/05/25 00:53:58;;;;;;;;;;;19.50;54.60;;;;;;10369833;28;838;-74
2023/05/25 00:58:54;;;;;;;;;;;19.50;54.70;;;;;;10369689;28;1961;-75
2023/05/25 01:03:52;;;;;;;;;;;19.40;54.60;;;;;;10368824;28;890;-75
2023/05/25 01:08:47;;;;;;;;;;;19.50;54.60;;;;;;10368696;28;862;-75
2023/05/25 01:13:43;;;;;;;;;;;19.40;54.40;;;;;;10368491;28;844;-75
2023/05/25 01:18:40;;;;;;;;;;;19.50;54.50;;;;;;10368223;28;1906;-75
2023/05/25 01:23:36;;;;;;;;;;;19.50;54.50;;;;;;10368189;28;777;-75
2023/05/25 01:28:31;;;;;;;;;;;19.50;54.40;;;;;;10367988;28;1552;-75
2023/05/25 01:33:26;;;;;;;;;;;19.50;54.50;;;;;;10368506;28;868;-75
2023/05/25 01:38:22;;;;;;;;;;;19.50;54.40;;;;;;10368617;28;1995;-75
2023/05/25 01:43:18;;;;;;;;;;;19.50;54.40;;;;;;10366778;28;1059;-75
2023/05/25 01:48:14;;;;;;;;;;;19.40;54.50;;;;;;10367550;28;879;-74
2023/05/25 01:53:09;;;;;;;;;;;19.40;54.40;;;;;;10366575;28;963;-75
2023/05/25 01:58:05;;;;;;;;;;;19.40;54.50;;;;;;10366340;28;1905;-74
2023/05/25 02:03:00;;;;;;;;;;;19.40;54.50;;;;;;10366795;28;961;-75
2023/05/25 02:07:55;;;;;;;;;;;19.40;54.40;;;;;;10367303;28;947;-74
2023/05/25 02:12:51;;;;;;;;;;;19.40;54.50;;;;;;10366046;28;876;-75
2023/05/25 02:17:47;;;;;;;;;;;19.40;54.30;;;;;;10365855;28;1905;-75
2023/05/25 02:22:42;;;;;;;;;;;19.40;54.30;;;;;;10366419;28;834;-74
2023/05/25 02:27:37;;;;;;;;;;;19.40;54.20;;;;;;10366921;28;838;-75
2023/05/25 02:32:34;;;;;;;;;;;19.50;54.30;;;;;;10366822;28;797;-74
2023/05/25 02:37:29;;;;;;;;;;;19.40;54.20;;;;;;10366773;28;1914;-75
2023/05/25 02:42:25;;;;;;;;;;;19.40;54.30;;;;;;10366096;28;772;-75
2023/05/25 02:47:20;;;;;;;;;;;19.40;54.30;;;;;;10365896;28;973;-75
2023/05/25 02:52:15;;;;;;;;;;;19.40;54.40;;;;;;10365189;28;942;-75
2023/05/25 02:57:11;;;;;;;;;;;19.40;54.30;;;;;;10365159;28;1909;-75
2023/05/25 03:02:06;;;;;;;;;;;19.40;54.40;;;;;;10366254;28;1517;-74
2023/05/25 03:07:02;;;;;;;;;;;19.40;54.40;;;;;;10366074;28;786;-74
2023/05/25 03:11:57;;;;;;;;;;;19.40;54.20;;;;;;10374131;28;850;-75
2023/05/25 03:16:52;;;;;;;;;;;19.40;54.20;;;;;;10373089;28;1906;-75
2023/05/25 03:21:48;;;;;;;;;;;19.40;54.20;;;;;;10373009;28;842;-75
2023/05/25 03:26:46;;;;;;;;;;;19.40;54.00;;;;;;10372774;28;828;-75
2023/05/25 03:31:41;;;;;;;;;;;19.40;54.10;;;;;;10373314;28;797;-75
2023/05/25 03:36:37;;;;;;;;;;;19.40;54.10;;;;;;10372237;28;1985;-75
2023/05/25 03:41:33;;;;;;;;;;;19.40;54.70;;;;;;10372428;28;864;-75
2023/05/25 03:46:28;;;;;;;;;;;19.30;54.00;;;;;;10371438;28;841;-75
2023/05/25 03:51:23;;;;;;;;;;;19.30;54.10;;;;;;10372415;28;880;-75
2023/05/25 03:56:19;;;;;;;;;;;19.20;54.20;;;;;;10372109;28;1898;-75
2023/05/25 04:01:15;;;;;;;;;;;19.20;54.20;;;;;;10371433;28;968;-75
2023/05/25 04:06:10;;;;;;;;;;;19.20;54.20;;;;;;10371236;28;874;-75
2023/05/25 04:11:06;;;;;;;;;;;19.20;54.30;;;;;;10371078;28;805;-75
2023/05/25 04:16:01;;;;;;;;;;;19.30;54.20;;;;;;10370828;28;1940;-75
2023/05/25 04:20:57;;;;;;;;;;;19.20;54.30;;;;;;10370761;28;927;-75
2023/05/25 04:25:53;;;;;;;;;;;19.30;54.00;;;;;;10370462;28;920;-74
2023/05/25 04:30:48;;;;;;;;;;;19.30;54.00;;;;;;10370194;28;996;-75
2023/05/25 04:35:44;;;;;;;;;;;19.30;54.00;;;;;;10370863;28;1905;-74
2023/05/25 04:40:40;;;;;;;;;;;19.40;53.90;;;;;;10371064;28;778;-73
2023/05/25 04:45:36;;;;;;;;;;;19.40;53.90;;;;;;10369728;28;943;-74
2023/05/25 04:50:31;;;;;;;;;;;19.40;53.70;;;;;;10369566;28;817;-75
2023/05/25 04:55:26;;;;;;;;;;;19.40;53.70;;;;;;10369353;28;873;-70
2023/05/25 05:00:22;;;;;;;;;;;19.50;53.70;;;;;;10369704;28;1897;-70
2023/05/25 05:05:17;;;;;;;;;;;19.50;53.70;;;;;;10369254;28;916;-70
2023/05/25 05:10:13;;;;;;;;;;;19.40;53.80;;;;;;10368779;28;805;-70
2023/05/25 05:15:08;;;;;;;;;;;19.50;53.80;;;;;;10368424;28;789;-71
2023/05/25 05:20:04;;;;;;;;;;;19.50;53.70;;;;;;10368880;28;1901;-70
2023/05/25 05:24:59;;;;;;;;;;;19.50;53.90;;;;;;10368490;28;881;-70
2023/05/25 05:29:55;;;;;;;;;;;19.50;53.90;;;;;;10367708;28;913;-71
2023/05/25 05:34:50;;;;;;;;;;;19.40;53.90;;;;;;10367510;28;1286;-70
2023/05/25 05:39:45;;;;;;;;;;;19.50;54.50;;;;;;10368180;28;1901;-73
2023/05/25 05:44:41;;;;;;;;;;;19.50;54.00;;;;;;10367423;28;851;-73
2023/05/25 05:49:38;;;;;;;;;;;19.40;54.00;;;;;;10367326;28;993;-71
2023/05/25 05:54:33;;;;;;;;;;;19.40;54.20;;;;;;10367284;28;855;-70
2023/05/25 05:59:28;;;;;;;;;;;19.50;54.10;;;;;;10367813;28;1902;-70
2023/05/25 06:04:27;;;;;;;;;;;19.50;54.10;;;;;;10366875;28;865;-71
2023/05/25 06:09:22;;;;;;;;;;;19.50;54.20;;;;;;10366833;28;866;-71
2023/05/25 06:14:18;;;;;;;;;;;19.40;54.20;;;;;;10367184;28;837;-71
2023/05/25 06:19:13;;;;;;;;;;;19.40;54.20;;;;;;10366475;28;1957;-70
2023/05/25 06:24:08;;;;;;;;;;;19.40;54.20;;;;;;10366422;28;876;-70
2023/05/25 06:29:04;;;;;;;;;;;19.40;54.30;;;;;;10366351;28;794;-71
2023/05/25 06:33:59;;;;;;;;;;;19.40;54.30;;;;;;10365916;28;1171;-69
2023/05/25 06:38:55;;;;;;;;;;;19.40;54.40;;;;;;10366582;28;1975;-71
2023/05/25 06:43:50;;;;;;;;;;;19.40;54.30;;;;;;10371436;28;779;-71
2023/05/25 06:48:46;;;;;;;;;;;19.50;54.20;;;;;;10374447;28;865;-69
2023/05/25 06:53:42;;;;;;;;;;;19.50;54.50;;;;;;10374395;28;857;-71
2023/05/25 06:58:37;;;;;;;;;;;19.40;54.60;;;;;;10374862;28;1902;-71
2023/05/25 07:03:33;;;;;;;;;;;19.40;54.60;;;;;;10373695;28;946;-71
2023/05/25 07:08:28;;;;;;;;;;;19.50;54.60;;;;;;10373544;28;774;-71
2023/05/25 07:13:24;;;;;;;;;;;19.50;54.50;;;;;;10372753;28;1023;-71
2023/05/25 07:18:19;;;;;;;;;;;19.50;54.50;;;;;;10373075;28;1949;-71
2023/05/25 07:23:14;;;;;;;;;;;19.50;54.60;;;;;;10373492;28;962;-71
2023/05/25 07:28:10;;;;;;;;;;;19.50;54.60;;;;;;10372802;28;1006;-71
2023/05/25 07:33:05;;;;;;;;;;;19.50;54.50;;;;;;10372592;28;723;-71
2023/05/25 07:38:01;;;;;;;;;;;19.50;54.50;;;;;;10372392;28;1980;-71
2023/05/25 07:42:56;;;;;;;;;;;19.50;54.60;;;;;;10373088;28;842;-71
2023/05/25 07:47:51;;;;;;;;;;;19.50;54.50;;;;;;10372564;28;803;-71
2023/05/25 07:52:47;;;;;;;;;;;19.50;54.60;;;;;;10370941;28;844;-71
2023/05/25 07:57:42;;;;;;;;;;;19.50;54.60;;;;;;10371960;28;1959;-71
2023/05/25 08:02:38;;;;;;;;;;;19.50;54.80;;;;;;10372040;28;785;-69
2023/05/25 08:07:33;;;;;;;;;;;19.50;54.70;;;;;;10334412;28;1023;-69
2023/05/25 08:12:28;;;;;;;;;;;19.50;54.70;;;;;;10328990;28;783;-69
2023/05/25 08:17:24;;;;;;;;;;;19.50;54.80;;;;;;10329185;28;1898;-68
2023/05/25 08:22:19;;;;;;;;;;;19.60;54.60;;;;;;10329675;28;861;-69
2023/05/25 08:27:15;;;;;;;;;;;19.60;54.60;;;;;;10329525;28;931;-68
2023/05/25 08:32:10;;;;;;;;;;;19.60;54.70;;;;;;10329010;28;890;-69
2023/05/25 08:37:06;;;;;;;;;;;19.60;54.80;;;;;;10329081;28;1914;-71
2023/05/25 08:42:01;;;;;;;;;;;19.60;54.80;;;;;;10328664;28;865;-70
2023/05/25 08:46:56;;;;;;;;;;;19.60;54.80;;;;;;10328023;28;877;-70
2023/05/25 08:51:52;;;;;;;;;;;19.60;54.90;;;;;;10328293;28;1032;-70
2023/05/25 08:56:47;;;;;;;;;;;19.60;54.90;;;;;;10327839;28;1906;-70
2023/05/25 09:01:42;;;;;;;;;;;19.60;55.10;;;;;;10328396;28;895;-70
2023/05/25 09:06:38;;;;;;;;;;;19.60;54.90;;;;;;10327185;28;765;-71
2023/05/25 09:11:33;;;;;;;;;;;19.60;55.00;;;;;;10328103;28;779;-71
2023/05/25 09:16:28;;;;;;;;;;;19.60;55.00;;;;;;10326735;28;1965;-70
2023/05/25 09:21:24;;;;;;;;;;;19.70;55.00;;;;;;10327336;28;934;-70
2023/05/25 09:26:19;;;;;;;;;;;19.70;55.00;;;;;;10327040;28;1060;-70
2023/05/25 09:31:15;;;;;;;;;;;19.60;55.60;;;;;;10326767;28;894;-71
2023/05/25 09:36:11;;;;;;;;;;;19.70;55.10;;;;;;10325865;28;1914;-71
2023/05/25 09:41:06;;;;;;;;;;;19.60;55.10;;;;;;10326321;28;767;-71
2023/05/25 09:46:01;;;;;;;;;;;19.60;55.10;;;;;;10327295;28;897;-71
2023/05/25 09:50:57;;;;;;;;;;;19.60;55.10;;;;;;10325518;28;880;-71
2023/05/25 09:55:52;;;;;;;;;;;19.60;55.10;;;;;;10325898;28;1964;-71
2023/05/25 10:00:47;;;;;;;;;;;19.60;55.20;;;;;;10326703;28;860;-71
2023/05/25 10:05:43;;;;;;;;;;;19.60;55.10;;;;;;10326401;28;848;-71
2023/05/25 10:10:38;;;;;;;;;;;19.60;55.10;;;;;;10325653;28;802;-70
2023/05/25 10:15:34;;;;;;;;;;;19.60;55.00;;;;;;10325257;28;837;-70
2023/05/25 10:20:29;;;;;;;;;;;19.60;55.20;;;;;;10325221;28;1906;-70
2023/05/25 10:25:24;;;;;;;;;;;19.70;55.30;;;;;;10325386;28;968;-69
2023/05/25 10:30:20;;;;;;;;;;;19.60;55.30;;;;;;10325235;28;802;-70
2023/05/25 10:35:15;;;;;;;;;;;19.60;55.30;;;;;;10324974;28;1209;-70
2023/05/25 10:40:11;;;;;;;;;;;19.70;55.20;;;;;;10324977;28;1972;-69
2023/05/25 10:45:06;;;;;;;;;;;19.60;55.30;;;;;;10324949;28;969;-70
2023/05/25 10:50:03;;;;;;;;;;;19.60;55.40;;;;;;10325504;28;856;-70
2023/05/25 10:55:00;;;;;;;;;;;19.60;55.40;;;;;;10324788;28;785;-70
2023/05/25 10:59:58;;;;;;;;;;;19.70;55.40;;;;;;10323949;28;1906;-70
2023/05/25 11:04:53;;;;;;;;;;;19.70;55.30;;;;;;10324734;28;859;-70
2023/05/25 11:09:49;;;;;;;;;;;19.70;55.40;;;;;;10325073;28;888;-70
2023/05/25 11:14:44;;;;;;;;;;;19.60;55.50;;;;;;10324347;28;977;-70
2023/05/25 11:19:40;;;;;;;;;;;19.50;55.50;;;;;;10324555;28;1898;-70
2023/05/25 11:24:35;;;;;;;;;;;19.50;55.60;;;;;;10324200;28;770;-70
2023/05/25 11:29:30;;;;;;;;;;;19.60;55.50;;;;;;10326991;28;923;-70
2023/05/25 11:34:26;;;;;;;;;;;19.60;55.40;;;;;;10331019;28;1355;-70
2023/05/25 11:39:22;;;;;;;;;;;19.60;55.30;;;;;;10332414;28;1910;-70
2023/05/25 11:44:17;;;;;;;;;;;19.70;55.30;;;;;;10330919;28;886;-70
2023/05/25 11:49:13;;;;;;;;;;;19.60;55.30;;;;;;10331372;28;824;-70
2023/05/25 11:54:08;;;;;;;;;;;19.60;55.30;;;;;;10331262;28;845;-70
2023/05/25 11:59:04;;;;;;;;;;;19.60;55.30;;;;;;10330988;28;1968;-70
2023/05/25 12:04:00;;;;;;;;;;;19.60;55.30;;;;;;10329681;28;842;-69
2023/05/25 12:08:55;;;;;;;;;;;19.60;55.30;;;;;;10330431;28;917;-70
2023/05/25 12:13:50;;;;;;;;;;;19.60;55.30;;;;;;10330423;28;894;-70
2023/05/25 12:18:46;;;;;;;;;;;19.60;55.40;;;;;;10329625;28;1954;-71
2023/05/25 12:23:41;;;;;;;;;;;19.60;55.40;;;;;;10329481;28;949;-71
2023/05/25 12:28:36;;;;;;;;;;;19.60;55.40;;;;;;10329319;28;758;-71
2023/05/25 12:33:32;;;;;;;;;;;19.60;55.20;;;;;;10329488;28;1112;-71
2023/05/25 12:38:27;;;;;;;;;;;19.60;55.20;;;;;;10328961;28;1914;-71
2023/05/25 12:43:22;;;;;;;;;;;19.60;55.20;;;;;;10328480;28;876;-71
2023/05/25 12:48:18;;;;;;;;;;;19.70;55.20;;;;;;10329295;28;814;-71
2023/05/25 12:53:14;;;;;;;;;;;19.70;55.10;;;;;;10328547;28;821;-71
2023/05/25 12:58:09;;;;;;;;;;;19.70;55.10;;;;;;10328092;28;1909;-71
2023/05/25 13:03:06;;;;;;;;;;;19.70;55.10;;;;;;10327862;28;896;-71
2023/05/25 13:08:01;;;;;;;;;;;19.70;55.10;;;;;;10328288;28;862;-71
2023/05/25 13:12:58;;;;;;;;;;;19.70;55.10;;;;;;10327728;28;832;-71
2023/05/25 13:17:53;;;;;;;;;;;19.70;55.10;;;;;;10328197;28;1898;-71
2023/05/25 13:22:49;;;;;;;;;;;19.70;55.20;;;;;;10327676;28;949;-71
2023/05/25 13:27:44;;;;;;;;;;;19.70;55.20;;;;;;10327536;28;945;-71
2023/05/25 13:32:41;;;;;;;;;;;19.70;55.20;;;;;;10326712;28;837;-71
2023/05/25 13:37:37;;;;;;;;;;;19.70;55.20;;;;;;10327509;28;1910;-69
2023/05/25 13:42:32;;;;;;;;;;;19.70;55.20;;;;;;10325836;28;884;-71
2023/05/25 13:47:27;;;;;;;;;;;19.70;55.20;;;;;;10327483;28;845;-71
2023/05/25 13:52:23;;;;;;;;;;;19.70;55.30;;;;;;10325398;28;875;-70
2023/05/25 13:57:20;;;;;;;;;;;19.70;55.20;;;;;;10325935;28;1893;-70
2023/05/25 14:02:15;;;;;;;;;;;19.70;55.20;;;;;;10325813;28;869;-70
2023/05/25 14:07:11;;;;;;;;;;;19.70;55.10;;;;;;10325143;28;1077;-71
2023/05/25 14:12:06;;;;;;;;;;;19.70;55.10;;;;;;10326249;28;842;-70
2023/05/25 14:17:01;;;;;;;;;;;19.70;55.10;;;;;;10326215;28;1965;-70
2023/05/25 14:21:57;;;;;;;;;;;19.70;55.10;;;;;;10325901;28;940;-67
2023/05/25 14:26:52;;;;;;;;;;;19.70;55.10;;;;;;10325360;28;900;-67
2023/05/25 14:31:48;;;;;;;;;;;19.70;55.20;;;;;;10325353;28;944;-67
2023/05/25 14:36:43;;;;;;;;;;;19.70;55.20;;;;;;10325179;28;1914;-75
2023/05/25 14:41:38;;;;;;;;;;;19.70;55.10;;;;;;10325121;28;893;-74
2023/05/25 14:46:34;;;;;;;;;;;19.70;55.20;;;;;;10324424;28;830;-74
2023/05/25 14:51:29;;;;;;;;;;;19.70;55.20;;;;;;10324913;28;782;-75
2023/05/25 14:56:25;;;;;;;;;;;19.70;55.30;;;;;;10325311;28;1902;-75
2023/05/25 15:01:20;;;;;;;;;;;19.60;55.20;;;;;;10324655;28;900;-75
2023/05/25 15:06:16;;;;;;;;;;;19.70;55.20;;;;;;10332508;28;944;-75
2023/05/25 15:11:11;;;;;;;;;;;19.80;55.00;;;;;;10332873;28;766;-74
2023/05/25 15:16:06;;;;;;;;;;;19.80;55.00;;;;;;10331963;28;1906;-74
2023/05/25 15:21:02;;;;;;;;;;;19.80;55.00;;;;;;10332806;28;924;-74
2023/05/25 15:26:01;;;;;;;;;;;19.70;55.00;;;;;;10332742;28;845;-75
2023/05/25 15:30:57;;;;;;;;;;;19.80;55.00;;;;;;10331468;28;1002;-74
2023/05/25 15:35:52;;;;;;;;;;;19.90;54.80;;;;;;10331665;28;1910;-74
2023/05/25 15:40:47;;;;;;;;;;;19.90;54.80;;;;;;10331190;28;928;-82
2023/05/25 15:45:43;;;;;;;;;;;19.90;54.80;;;;;;10331214;28;916;-74
2023/05/25 15:50:38;;;;;;;;;;;19.90;54.80;;;;;;10330293;28;776;-74
2023/05/25 15:55:34;;;;;;;;;;;20.00;54.60;;;;;;10330653;28;774;-75
2023/05/25 16:00:31;;;;;;;;;;;20.20;54.40;;;;;;10330436;28;1977;-75
2023/05/25 16:05:28;;;;;;;;;;;20.20;54.40;;;;;;10331047;28;805;-73
2023/05/25 16:10:24;;;;;;;;;;;20.10;54.50;;;;;;10330106;28;902;-75
2023/05/25 16:15:21;;;;;;;;;;;20.00;54.60;;;;;;10329697;28;968;-75
2023/05/25 16:20:17;;;;;;;;;;;20.00;54.50;;;;;;10330317;28;1914;-75
2023/05/25 16:25:12;;;;;;;;;;;20.00;54.60;;;;;;10329894;28;759;-74
2023/05/25 16:30:07;;;;;;;;;;;20.00;54.70;;;;;;10329328;28;872;-75
2023/05/25 16:35:03;;;;;;;;;;;19.90;54.70;;;;;;10329372;28;1553;-75
2023/05/25 16:39:58;;;;;;;;;;;20.00;54.60;;;;;;10328829;28;1914;-74
2023/05/25 16:44:53;;;;;;;;;;;20.10;54.40;;;;;;10329030;28;858;-75
2023/05/25 16:49:49;;;;;;;;;;;20.10;54.40;;;;;;10328550;28;837;-74
2023/05/25 16:54:44;;;;;;;;;;;20.10;54.50;;;;;;10328261;28;924;-74
2023/05/25 16:59:40;;;;;;;;;;;20.10;54.60;;;;;;10328369;28;1975;-75
2023/05/25 17:04:35;;;;;;;;;;;20.00;54.60;;;;;;10327886;28;850;-74
2023/05/25 17:09:30;;;;;;;;;;;20.00;54.70;;;;;;10328320;28;955;-74
2023/05/25 17:14:26;;;;;;;;;;;19.90;54.70;;;;;;10327507;28;950;-74
2023/05/25 17:19:21;;;;;;;;;;;19.90;54.80;;;;;;10327884;28;1906;-74
2023/05/25 17:24:17;;;;;;;;;;;19.90;54.70;;;;;;10327159;28;901;-74
2023/05/25 17:29:12;;;;;;;;;;;19.80;54.80;;;;;;10325943;28;873;-74
2023/05/25 17:34:07;;;;;;;;;;;19.80;54.70;;;;;;10327186;28;1240;-75
2023/05/25 17:39:04;;;;;;;;;;;19.80;54.80;;;;;;10327272;28;1917;-75
2023/05/25 17:43:59;;;;;;;;;;;19.80;54.80;;;;;;10327283;28;778;-74
2023/05/25 17:48:54;;;;;;;;;;;19.80;54.80;;;;;;10326281;28;788;-74
2023/05/25 17:53:50;;;;;;;;;;;19.80;54.90;;;;;;10326180;28;863;-74
2023/05/25 17:58:46;;;;;;;;;;;19.70;54.90;;;;;;10326606;28;1973;-74
2023/05/25 18:03:41;;;;;;;;;;;19.70;54.80;;;;;;10325856;28;1145;-75
2023/05/25 18:08:36;;;;;;;;;;;19.80;55.30;;;;;;10326428;28;945;-74
2023/05/25 18:13:32;;;;;;;;;;;19.80;54.70;;;;;;10325647;28;758;-75
2023/05/25 18:18:27;;;;;;;;;;;19.90;54.70;;;;;;10326324;28;1955;-75
2023/05/25 18:23:22;;;;;;;;;;;19.90;54.70;;;;;;10324912;28;888;-74
2023/05/25 18:28:18;;;;;;;;;;;20.00;54.60;;;;;;10325321;28;833;-75
2023/05/25 18:33:14;;;;;;;;;;;19.90;54.50;;;;;;10325328;28;921;-73
2023/05/25 18:38:09;;;;;;;;;;;19.90;54.50;;;;;;10327779;28;1973;-73
2023/05/25 18:43:06;;;;;;;;;;;19.90;54.60;;;;;;10333623;28;773;-73
2023/05/25 18:48:07;;;;;;;;;;;19.90;54.60;;;;;;10333962;28;770;-74
2023/05/25 18:53:03;;;;;;;;;;;19.90;54.60;;;;;;10333728;28;864;-74
2023/05/25 18:57:58;;;;;;;;;;;19.90;54.40;;;;;;10332830;28;1965;-75
2023/05/25 19:02:53;;;;;;;;;;;19.90;54.50;;;;;;10334111;28;885;-74
2023/05/25 19:07:49;;;;;;;;;;;19.90;54.50;;;;;;10332680;28;762;-74
2023/05/25 19:12:44;;;;;;;;;;;19.80;54.60;;;;;;10332242;28;849;-74
2023/05/25 19:17:40;;;;;;;;;;;19.80;55.20;;;;;;10332015;28;1910;-74
2023/05/25 19:22:35;;;;;;;;;;;19.80;54.70;;;;;;10332038;28;854;-74
2023/05/25 19:27:31;;;;;;;;;;;19.80;54.60;;;;;;10331728;28;848;-74
2023/05/25 19:32:26;;;;;;;;;;;19.80;54.60;;;;;;10332135;28;968;-74
2023/05/25 19:37:21;;;;;;;;;;;19.80;54.60;;;;;;10331951;28;1989;-74
2023/05/25 19:42:17;;;;;;;;;;;19.80;54.60;;;;;;10332091;28;883;-74
2023/05/25 19:47:12;;;;;;;;;;;19.70;54.60;;;;;;10330276;28;874;-74
2023/05/25 19:52:07;;;;;;;;;;;19.70;54.70;;;;;;10329085;28;981;-75
2023/05/25 19:57:03;;;;;;;;;;;19.70;54.70;;;;;;10330600;28;1906;-74
2023/05/25 20:01:58;;;;;;;;;;;19.70;54.80;;;;;;10331422;28;900;-74
2023/05/25 20:06:54;;;;;;;;;;;19.60;54.80;;;;;;10331047;28;909;-75
2023/05/25 20:11:49;;;;;;;;;;;19.60;54.80;;;;;;10330185;28;854;-74
2023/05/25 20:16:45;;;;;;;;;;;19.60;54.80;;;;;;10330090;28;1909;-74
2023/05/25 20:21:40;;;;;;;;;;;19.60;54.80;;;;;;10329762;28;840;-75
2023/05/25 20:26:35;;;;;;;;;;;19.60;54.70;;;;;;10329314;28;920;-75
2023/05/25 20:31:31;;;;;;;;;;;19.60;54.80;;;;;;10311977;28;884;-74
2023/05/25 20:36:26;;;;;;;;;;;19.60;54.70;;;;;;10329671;28;1973;-74
2023/05/25 20:41:21;;;;;;;;;;;19.60;54.70;;;;;;10328960;28;941;-74
2023/05/25 20:46:17;;;;;;;;;;;19.60;54.70;;;;;;10328138;28;882;-74
2023/05/25 20:51:13;;;;;;;;;;;19.60;54.60;;;;;;10328078;28;1055;-75
2023/05/25 20:56:08;;;;;;;;;;;19.60;54.60;;;;;;10328242;28;1902;-74
2023/05/25 21:01:04;;;;;;;;;;;19.60;54.60;;;;;;10327824;28;958;-74
2023/05/25 21:06:00;;;;;;;;;;;19.50;54.70;;;;;;10328490;28;928;-75
2023/05/25 21:10:55;;;;;;;;;;;19.50;54.70;;;;;;10328344;28;821;-74
2023/05/25 21:15:51;;;;;;;;;;;19.50;54.70;;;;;;10327430;28;787;-74
2023/05/25 21:20:46;;;;;;;;;;;19.50;54.60;;;;;;10328144;28;1959;-74
2023/05/25 21:25:41;;;;;;;;;;;19.60;54.70;;;;;;10327134;28;911;-75
2023/05/25 21:30:37;;;;;;;;;;;19.60;54.60;;;;;;10328200;28;790;-70
2023/05/25 21:35:32;;;;;;;;;;;19.60;54.60;;;;;;10326876;28;1175;-70
2023/05/25 21:40:27;;;;;;;;;;;19.50;54.60;;;;;;10327224;28;1914;-70
2023/05/25 21:45:23;;;;;;;;;;;19.50;54.70;;;;;;10326446;28;801;-70
2023/05/25 21:50:18;;;;;;;;;;;19.50;54.90;;;;;;10326533;28;836;-70
2023/05/25 21:55:14;;;;;;;;;;;19.50;54.90;;;;;;10327189;28;770;-70
2023/05/25 22:00:11;;;;;;;;;;;19.40;54.90;;;;;;10326611;28;1914;-70
2023/05/25 22:05:06;;;;;;;;;;;19.40;55.00;;;;;;10325941;28;768;-70
2023/05/25 22:10:02;;;;;;;;;;;19.40;55.00;;;;;;10326957;28;805;-70
2023/05/25 22:14:58;;;;;;;;;;;19.40;55.10;;;;;;10325664;28;828;-70
2023/05/25 22:19:53;;;;;;;;;;;19.40;55.70;;;;;;10325781;28;1905;-70
2023/05/25 22:24:48;;;;;;;;;;;19.40;55.10;;;;;;10325483;28;948;-70
2023/05/25 22:29:44;;;;;;;;;;;19.40;55.10;;;;;;10325317;28;877;-70
2023/05/25 22:34:39;;;;;;;;;;;19.40;55.10;;;;;;10326280;28;1436;-70
2023/05/25 22:39:35;;;;;;;;;;;19.40;55.10;;;;;;10325062;28;1968;-70
2023/05/25 22:44:30;;;;;;;;;;;19.40;55.10;;;;;;10308405;28;951;-70
2023/05/25 22:49:25;;;;;;;;;;;19.40;55.20;;;;;;10325640;28;798;-70
2023/05/25 22:54:21;;;;;;;;;;;19.40;55.20;;;;;;10324924;28;837;-70
2023/05/25 22:59:16;;;;;;;;;;;19.40;55.10;;;;;;10324046;28;1964;-70
2023/05/25 23:04:11;;;;;;;;;;;19.40;55.20;;;;;;10325009;28;969;-70
2023/05/25 23:09:07;;;;;;;;;;;19.40;55.20;;;;;;10325286;28;798;-70
2023/05/25 23:14:02;;;;;;;;;;;19.40;55.20;;;;;;10325107;28;850;-70
2023/05/25 23:18:57;;;;;;;;;;;19.40;55.20;;;;;;10325540;28;1906;-70
2023/05/25 23:23:53;;;;;;;;;;;19.40;55.20;;;;;;10326171;28;766;-70
2023/05/25 23:28:48;;;;;;;;;;;19.40;55.20;;;;;;10332342;28;861;-70
2023/05/25 23:33:44;;;;;;;;;;;19.40;55.20;;;;;;10331480;28;981;-70
2023/05/25 23:38:39;;;;;;;;;;;19.30;55.10;;;;;;10330457;28;1983;-70
2023/05/25 23:43:35;;;;;;;;;;;19.30;55.10;;;;;;10331778;28;794;-70
2023/05/25 23:48:30;;;;;;;;;;;19.30;55.10;;;;;;10330493;28;832;-70
2023/05/25 23:53:26;;;;;;;;;;;19.30;55.10;;;;;;10330942;28;833;-70
2023/05/25 23:58:21;;;;;;;;;;;19.30;55.10;;;;;;10330820;28;1910;-70
